createdAt,value
2019-06-26T00:01:15.397Z,25.00
2019-06-26T00:03:47.702Z,25.00
2019-06-26T00:06:20.284Z,24.90
2019-06-26T00:08:52.866Z,24.90
2019-06-26T00:11:25.583Z,24.80
2019-06-26T00:13:58.544Z,24.80
2019-06-26T00:16:30.868Z,24.80
2019-06-26T00:19:03.182Z,24.80
2019-06-26T00:21:35.794Z,24.80
2019-06-26T00:24:08.102Z,24.70
2019-06-26T00:26:40.912Z,24.70
2019-06-26T00:29:14.326Z,24.70
2019-06-26T00:31:46.683Z,24.60
2019-06-26T00:34:19.342Z,24.60
2019-06-26T00:36:51.655Z,24.60
2019-06-26T00:39:24.302Z,24.60
2019-06-26T00:41:57.166Z,24.60
2019-06-26T00:44:30.152Z,24.60
2019-06-26T00:47:02.487Z,24.50
2019-06-26T00:49:34.867Z,24.50
2019-06-26T00:52:07.116Z,24.50
2019-06-26T00:54:39.753Z,24.50
2019-06-26T00:57:12.430Z,24.40
2019-06-26T00:59:45.060Z,24.40
2019-06-26T01:02:17.411Z,24.40
2019-06-26T01:04:51.425Z,24.40
2019-06-26T01:07:23.850Z,24.30
2019-06-26T01:09:56.164Z,24.30
2019-06-26T01:12:28.491Z,24.30
2019-06-26T01:15:01.173Z,24.30
2019-06-26T01:17:34.404Z,24.30
2019-06-26T01:20:07.595Z,24.30
2019-06-26T01:22:41.024Z,24.30
2019-06-26T01:25:13.588Z,24.20
2019-06-26T01:27:46.271Z,24.20
2019-06-26T01:30:19.358Z,24.10
2019-06-26T01:32:52.075Z,24.10
2019-06-26T01:35:24.465Z,24.10
2019-06-26T01:37:57.036Z,24.10
2019-06-26T01:40:29.699Z,24.00
2019-06-26T01:43:02.171Z,24.00
2019-06-26T01:45:34.555Z,24.00
2019-06-26T01:48:06.971Z,24.00
2019-06-26T01:50:39.877Z,24.00
2019-06-26T01:53:12.237Z,23.90
2019-06-26T01:55:45.302Z,23.90
2019-06-26T01:58:17.928Z,23.90
2019-06-26T02:00:50.201Z,23.90
2019-06-26T02:03:22.882Z,23.90
2019-06-26T02:05:55.446Z,23.80
2019-06-26T02:08:28.944Z,23.90
2019-06-26T02:11:01.221Z,23.90
2019-06-26T02:13:33.600Z,23.90
2019-06-26T02:16:06.504Z,23.80
2019-06-26T02:18:46.446Z,23.80
2019-06-26T02:21:18.722Z,23.80
2019-06-26T02:23:51.045Z,23.80
2019-06-26T02:26:23.423Z,23.80
2019-06-26T02:28:56.022Z,23.90
2019-06-26T02:31:28.593Z,23.80
2019-06-26T02:34:02.417Z,23.80
2019-06-26T02:36:34.688Z,23.80
2019-06-26T02:39:08.536Z,23.80
2019-06-26T02:41:40.820Z,23.80
2019-06-26T02:44:13.119Z,23.80
2019-06-26T02:46:45.682Z,23.70
2019-06-26T02:49:18.066Z,23.70
2019-06-26T02:51:50.346Z,23.60
2019-06-26T02:54:22.703Z,23.60
2019-06-26T02:56:55.108Z,23.60
2019-06-26T02:59:28.588Z,23.50
2019-06-26T03:02:00.896Z,23.50
2019-06-26T03:04:33.537Z,23.50
2019-06-26T03:07:05.800Z,23.50
2019-06-26T03:09:38.209Z,23.40
2019-06-26T03:12:10.841Z,23.40
2019-06-26T03:14:43.272Z,23.40
2019-06-26T03:17:16.185Z,23.40
2019-06-26T03:19:48.536Z,23.40
2019-06-26T03:22:20.822Z,23.40
2019-06-26T03:24:53.827Z,23.40
2019-06-26T03:27:26.296Z,23.40
2019-06-26T03:29:59.092Z,23.40
2019-06-26T03:32:31.380Z,23.40
2019-06-26T03:35:05.036Z,23.40
2019-06-26T03:37:37.948Z,23.40
2019-06-26T03:40:10.881Z,23.50
2019-06-26T03:42:43.462Z,23.50
2019-06-26T03:45:25.725Z,23.50
2019-06-26T03:47:50.557Z,23.60
2019-06-26T03:50:22.955Z,23.60
2019-06-26T03:52:55.302Z,23.70
2019-06-26T03:55:28.776Z,23.70
2019-06-26T03:58:03.574Z,23.70
2019-06-26T04:00:43.112Z,23.80
2019-06-26T04:03:15.460Z,23.90
2019-06-26T04:05:47.830Z,23.90
2019-06-26T04:08:20.456Z,24.00
2019-06-26T04:10:52.801Z,24.00
2019-06-26T04:13:25.082Z,24.00
2019-06-26T04:15:57.440Z,24.00
2019-06-26T04:18:29.723Z,24.00
2019-06-26T04:21:02.440Z,24.10
2019-06-26T04:23:35.043Z,24.10
2019-06-26T04:26:07.369Z,24.20
2019-06-26T04:28:39.664Z,24.20
2019-06-26T04:31:11.981Z,24.30
2019-06-26T04:33:44.939Z,24.30
2019-06-26T04:36:17.616Z,24.30
2019-06-26T04:38:50.596Z,24.40
2019-06-26T04:41:24.095Z,24.40
2019-06-26T04:43:57.128Z,24.50
2019-06-26T04:46:29.581Z,24.60
2019-06-26T04:49:01.855Z,24.70
2019-06-26T04:51:34.260Z,24.80
2019-06-26T04:54:06.694Z,24.90
2019-06-26T04:56:42.454Z,25.10
2019-06-26T04:59:14.800Z,25.20
2019-06-26T05:01:47.104Z,25.40
2019-06-26T05:04:37.805Z,25.50
2019-06-26T05:07:14.672Z,25.50
2019-06-26T05:09:47.053Z,25.50
2019-06-26T05:12:20.044Z,25.50
2019-06-26T05:14:55.230Z,25.50
2019-06-26T05:17:27.619Z,25.70
2019-06-26T05:20:00.127Z,25.70
2019-06-26T05:22:32.618Z,25.90
2019-06-26T05:25:05.486Z,26.00
2019-06-26T05:27:37.828Z,26.10
2019-06-26T05:30:12.492Z,26.30
2019-06-26T05:32:45.236Z,26.40
2019-06-26T05:35:18.477Z,26.60
2019-06-26T05:37:51.145Z,26.70
2019-06-26T05:40:23.783Z,26.90
2019-06-26T05:42:56.139Z,27.00
2019-06-26T05:45:29.795Z,27.10
2019-06-26T05:48:02.906Z,27.30
2019-06-26T05:50:35.573Z,27.40
2019-06-26T05:53:07.843Z,27.50
2019-06-26T05:55:40.256Z,27.60
2019-06-26T05:58:12.535Z,27.60
2019-06-26T06:00:45.688Z,27.80
2019-06-26T06:03:18.058Z,27.80
2019-06-26T06:05:50.854Z,27.90
2019-06-26T06:08:23.315Z,28.00
2019-06-26T06:10:58.165Z,28.00
2019-06-26T06:13:30.130Z,28.10
2019-06-26T06:16:06.217Z,28.20
2019-06-26T06:18:36.538Z,28.10
2019-06-26T06:21:09.384Z,28.30
2019-06-26T06:23:41.679Z,28.50
2019-06-26T06:26:14.015Z,28.40
2019-06-26T06:28:46.307Z,28.20
2019-06-26T06:31:18.649Z,28.10
2019-06-26T06:33:50.979Z,28.10
2019-06-26T06:36:23.323Z,28.10
2019-06-26T06:38:55.650Z,28.30
2019-06-26T06:41:28.025Z,28.50
2019-06-26T06:44:00.299Z,28.60
2019-06-26T06:46:32.758Z,28.70
2019-06-26T06:49:05.381Z,28.70
2019-06-26T06:51:38.113Z,28.70
2019-06-26T06:54:10.805Z,28.80
2019-06-26T06:56:43.308Z,28.60
2019-06-26T06:59:16.120Z,28.80
2019-06-26T07:01:48.662Z,29.10
2019-06-26T07:04:21.303Z,29.30
2019-06-26T07:06:53.980Z,29.20
2019-06-26T07:09:26.975Z,29.30
2019-06-26T07:11:59.857Z,29.40
2019-06-26T07:14:32.131Z,29.70
2019-06-26T07:17:19.451Z,30.10
2019-06-26T07:19:40.576Z,30.00
2019-06-26T07:22:12.923Z,30.00
2019-06-26T07:24:45.222Z,30.20
2019-06-26T07:27:17.889Z,30.30
2019-06-26T07:29:50.320Z,30.40
2019-06-26T07:32:22.629Z,30.40
2019-06-26T07:34:55.360Z,30.70
2019-06-26T07:37:27.616Z,30.90
2019-06-26T07:40:02.038Z,30.90
2019-06-26T07:42:34.705Z,31.20
2019-06-26T07:45:08.244Z,31.40
2019-06-26T07:47:43.481Z,31.70
2019-06-26T07:50:15.246Z,31.50
2019-06-26T07:52:47.524Z,31.80
2019-06-26T07:55:20.149Z,31.90
2019-06-26T07:57:52.442Z,31.50
2019-06-26T08:00:25.965Z,31.10
2019-06-26T08:02:58.289Z,31.20
2019-06-26T08:05:30.827Z,31.50
2019-06-26T08:08:03.462Z,31.90
2019-06-26T08:10:36.635Z,32.00
2019-06-26T08:13:09.620Z,32.20
2019-06-26T08:15:42.340Z,32.40
2019-06-26T08:18:14.671Z,32.10
2019-06-26T08:21:00.718Z,32.00
2019-06-26T08:23:21.617Z,31.90
2019-06-26T08:25:53.903Z,32.00
2019-06-26T08:28:27.367Z,32.40
2019-06-26T08:31:00.504Z,32.30
2019-06-26T08:33:32.858Z,32.70
2019-06-26T08:36:05.125Z,33.10
2019-06-26T08:38:37.475Z,32.80
2019-06-26T08:41:10.400Z,32.80
2019-06-26T08:43:43.093Z,32.70
2019-06-26T08:46:16.080Z,32.50
2019-06-26T08:48:51.958Z,32.40
2019-06-26T08:51:23.912Z,32.40
2019-06-26T08:53:56.232Z,32.90
2019-06-26T08:56:28.625Z,33.20
2019-06-26T08:59:01.073Z,33.00
2019-06-26T09:01:33.665Z,32.80
2019-06-26T09:04:06.032Z,32.70
2019-06-26T09:06:38.379Z,33.00
2019-06-26T09:09:10.779Z,33.20
2019-06-26T09:11:43.289Z,33.20
2019-06-26T09:14:16.820Z,33.20
2019-06-26T09:16:50.327Z,32.80
2019-06-26T09:19:22.936Z,32.50
2019-06-26T09:21:55.306Z,32.80
2019-06-26T09:24:27.849Z,33.20
2019-06-26T09:27:00.272Z,33.50
2019-06-26T09:29:32.642Z,33.40
2019-06-26T09:32:05.315Z,32.80
2019-06-26T09:34:37.699Z,32.70
2019-06-26T09:37:10.364Z,33.20
2019-06-26T09:39:42.764Z,33.50
2019-06-26T09:42:19.162Z,33.60
2019-06-26T09:44:49.162Z,33.70
2019-06-26T09:47:22.254Z,33.70
2019-06-26T09:49:54.803Z,33.40
2019-06-26T09:52:27.184Z,33.50
2019-06-26T09:55:00.738Z,33.30
2019-06-26T09:57:33.357Z,33.60
2019-06-26T10:00:06.597Z,33.60
2019-06-26T10:02:39.761Z,34.00
2019-06-26T10:05:12.868Z,33.70
2019-06-26T10:07:45.497Z,33.70
2019-06-26T10:10:19.295Z,33.80
2019-06-26T10:12:51.678Z,33.50
2019-06-26T10:15:24.189Z,32.90
2019-06-26T10:17:56.580Z,32.80
2019-06-26T10:20:29.007Z,32.70
2019-06-26T10:23:02.433Z,32.70
2019-06-26T10:25:34.751Z,32.90
2019-06-26T10:28:07.194Z,33.40
2019-06-26T10:30:39.799Z,33.20
2019-06-26T10:33:12.115Z,32.90
2019-06-26T10:35:44.855Z,33.30
2019-06-26T10:38:17.304Z,33.40
2019-06-26T10:40:49.573Z,33.10
2019-06-26T10:43:21.963Z,32.90
2019-06-26T10:45:54.975Z,32.90
2019-06-26T10:48:27.370Z,32.70
2019-06-26T10:51:00.545Z,32.50
2019-06-26T10:53:34.513Z,32.50
2019-06-26T10:56:06.833Z,32.80
2019-06-26T10:58:39.822Z,33.10
2019-06-26T11:01:12.464Z,33.80
2019-06-26T11:03:44.856Z,33.80
2019-06-26T11:06:17.223Z,33.80
2019-06-26T11:08:49.578Z,33.50
2019-06-26T11:11:21.948Z,33.90
2019-06-26T11:13:54.581Z,33.10
2019-06-26T11:16:28.234Z,32.90
2019-06-26T11:19:00.597Z,32.60
2019-06-26T11:21:32.893Z,32.50
2019-06-26T11:24:06.456Z,32.30
2019-06-26T11:26:39.521Z,32.30
2019-06-26T11:29:11.900Z,32.60
2019-06-26T11:31:44.197Z,32.70
2019-06-26T11:34:16.845Z,32.80
2019-06-26T11:37:03.239Z,32.70
2019-06-26T11:39:24.435Z,32.50
2019-06-26T11:41:57.469Z,32.00
2019-06-26T11:44:30.994Z,32.20
2019-06-26T11:47:04.439Z,32.70
2019-06-26T11:49:37.153Z,32.90
2019-06-26T11:52:10.371Z,32.60
2019-06-26T11:54:42.681Z,32.30
2019-06-26T11:57:15.714Z,31.90
2019-06-26T11:59:48.742Z,31.50
2019-06-26T12:02:21.016Z,31.30
2019-06-26T12:04:53.447Z,30.90
2019-06-26T12:07:25.742Z,30.70
2019-06-26T12:09:59.094Z,30.90
2019-06-26T12:12:32.201Z,31.10
2019-06-26T12:15:05.795Z,30.80
2019-06-26T12:17:38.112Z,30.60
2019-06-26T12:20:19.345Z,30.70
2019-06-26T12:22:47.029Z,30.40
2019-06-26T12:25:19.406Z,29.90
2019-06-26T12:27:52.083Z,29.50
2019-06-26T12:30:24.747Z,29.60
2019-06-26T12:33:03.261Z,29.40
2019-06-26T12:35:32.241Z,29.50
2019-06-26T12:38:04.602Z,29.50
2019-06-26T12:40:36.911Z,29.50
2019-06-26T12:43:09.277Z,29.20
2019-06-26T12:45:41.708Z,29.00
2019-06-26T12:48:16.240Z,28.50
2019-06-26T12:50:48.054Z,28.50
2019-06-26T12:53:20.773Z,28.50
2019-06-26T12:55:53.139Z,28.70
2019-06-26T12:58:25.592Z,29.20
2019-06-26T13:00:58.197Z,29.00
2019-06-26T13:03:31.771Z,28.90
2019-06-26T13:06:04.175Z,28.90
2019-06-26T13:08:37.255Z,28.70
2019-06-26T13:11:09.565Z,28.30
2019-06-26T13:13:42.050Z,28.40
2019-06-26T13:16:14.511Z,28.10
2019-06-26T13:18:46.789Z,27.70
2019-06-26T13:21:20.114Z,27.50
2019-06-26T13:23:52.718Z,27.30
2019-06-26T13:26:25.968Z,27.00
2019-06-26T13:28:58.691Z,26.90
2019-06-26T13:31:31.539Z,27.00
2019-06-26T13:34:03.834Z,26.90
2019-06-26T13:36:36.294Z,26.90
2019-06-26T13:39:08.641Z,26.80
2019-06-26T13:41:40.965Z,26.50
2019-06-26T13:44:13.282Z,26.40
2019-06-26T13:46:46.729Z,26.50
2019-06-26T13:49:19.633Z,26.50
2019-06-26T13:51:52.382Z,26.30
2019-06-26T13:54:24.779Z,26.30
2019-06-26T13:56:57.229Z,26.20
2019-06-26T13:59:29.582Z,26.10
2019-06-26T14:02:01.884Z,26.00
2019-06-26T14:04:34.235Z,25.90
2019-06-26T14:07:08.579Z,25.90
2019-06-26T14:09:41.634Z,25.80
2019-06-26T14:12:18.942Z,25.80
2019-06-26T14:14:57.242Z,26.00
2019-06-26T14:17:23.049Z,25.70
2019-06-26T14:19:55.632Z,25.50
2019-06-26T14:22:28.044Z,25.30
2019-06-26T14:25:01.499Z,25.30
2019-06-26T14:27:34.229Z,25.40
2019-06-26T14:30:08.128Z,25.20
2019-06-26T14:32:40.911Z,25.30
2019-06-26T14:35:14.060Z,25.20
2019-06-26T14:37:46.657Z,25.20
2019-06-26T14:40:20.948Z,25.00
2019-06-26T14:42:53.639Z,24.90
2019-06-26T14:45:26.924Z,25.10
2019-06-26T14:48:01.842Z,25.20
2019-06-26T14:50:34.121Z,25.20
2019-06-26T14:53:06.474Z,25.30
2019-06-26T14:55:38.769Z,25.20
2019-06-26T14:58:11.436Z,25.00
2019-06-26T15:00:43.781Z,24.80
2019-06-26T15:03:16.391Z,24.70
2019-06-26T15:05:48.671Z,24.40
2019-06-26T15:08:21.295Z,24.30
2019-06-26T15:10:53.659Z,24.30
2019-06-26T15:13:26.322Z,24.20
2019-06-26T15:15:58.611Z,24.10
2019-06-26T15:18:31.928Z,23.80
2019-06-26T15:21:04.216Z,23.80
2019-06-26T15:23:37.232Z,23.80
2019-06-26T15:26:09.549Z,23.80
2019-06-26T15:28:42.367Z,23.70
2019-06-26T15:31:15.424Z,23.60
2019-06-26T15:33:47.753Z,23.50
2019-06-26T15:36:20.575Z,23.40
2019-06-26T15:38:54.818Z,23.10
2019-06-26T15:41:27.786Z,23.00
2019-06-26T15:44:00.418Z,22.90
2019-06-26T15:46:33.067Z,22.70
2019-06-26T15:49:05.465Z,22.50
2019-06-26T15:51:38.099Z,22.30
2019-06-26T15:54:11.343Z,22.40
2019-06-26T15:56:43.866Z,22.30
2019-06-26T15:59:16.380Z,22.30
2019-06-26T16:01:48.664Z,22.50
2019-06-26T16:04:21.325Z,22.60
2019-06-26T16:06:54.754Z,22.70
2019-06-26T16:09:27.156Z,22.90
2019-06-26T16:11:59.494Z,22.70
2019-06-26T16:14:32.339Z,22.60
2019-06-26T16:17:10.014Z,22.30
2019-06-26T16:19:42.336Z,22.10
2019-06-26T16:22:30.609Z,22.20
2019-06-26T16:24:51.035Z,22.10
2019-06-26T16:27:23.361Z,22.10
2019-06-26T16:29:55.698Z,22.10
2019-06-26T16:32:28.310Z,21.90
2019-06-26T16:35:01.867Z,21.80
2019-06-26T16:37:34.234Z,21.80
2019-06-26T16:40:06.781Z,21.70
2019-06-26T16:42:39.845Z,21.80
2019-06-26T16:45:12.213Z,21.70
2019-06-26T16:47:44.662Z,21.50
2019-06-26T16:50:21.346Z,21.40
2019-06-26T16:52:54.008Z,21.50
2019-06-26T16:55:26.729Z,21.50
2019-06-26T16:57:58.995Z,21.30
2019-06-26T17:00:32.496Z,21.10
2019-06-26T17:03:06.427Z,21.00
2019-06-26T17:05:39.317Z,21.00
2019-06-26T17:08:11.670Z,20.90
2019-06-26T17:10:44.310Z,21.00
2019-06-26T17:13:16.621Z,21.00
2019-06-26T17:15:49.875Z,21.10
2019-06-26T17:18:23.101Z,21.20
2019-06-26T17:20:58.544Z,21.20
2019-06-26T17:23:32.375Z,21.00
2019-06-26T17:26:04.790Z,20.90
2019-06-26T17:28:37.060Z,20.90
2019-06-26T17:31:09.981Z,21.00
2019-06-26T17:33:43.230Z,21.10
2019-06-26T17:36:15.564Z,20.90
2019-06-26T17:38:47.812Z,20.90
2019-06-26T17:41:20.715Z,20.60
2019-06-26T17:43:53.302Z,20.60
2019-06-26T17:46:25.927Z,20.70
2019-06-26T17:48:58.205Z,20.60
2019-06-26T17:51:30.524Z,20.60
2019-06-26T17:54:03.153Z,20.60
2019-06-26T17:56:36.174Z,20.40
2019-06-26T17:59:08.928Z,20.40
2019-06-26T18:01:41.918Z,20.20
2019-06-26T18:04:14.271Z,20.30
2019-06-26T18:06:46.673Z,20.30
2019-06-26T18:09:19.240Z,20.30
2019-06-26T18:11:51.671Z,20.40
2019-06-26T18:14:24.050Z,20.20
2019-06-26T18:16:56.759Z,20.10
2019-06-26T18:19:29.339Z,20.00
2019-06-26T18:22:02.264Z,19.80
2019-06-26T18:24:35.193Z,19.60
2019-06-26T18:27:07.871Z,19.70
2019-06-26T18:29:41.351Z,19.70
2019-06-26T18:32:14.921Z,19.70
2019-06-26T18:34:48.105Z,19.70
2019-06-26T18:37:20.866Z,19.60
2019-06-26T18:39:53.453Z,19.60
2019-06-26T18:42:26.885Z,19.70
2019-06-26T18:44:59.888Z,19.70
2019-06-26T18:47:32.963Z,19.60
2019-06-26T18:50:06.239Z,19.60
2019-06-26T18:52:38.865Z,19.60
2019-06-26T18:55:11.632Z,19.60
2019-06-26T18:57:44.267Z,19.40
2019-06-26T19:00:17.553Z,19.40
2019-06-26T19:02:50.321Z,19.30
2019-06-26T19:05:22.948Z,19.40
2019-06-26T19:07:55.627Z,19.40
2019-06-26T19:10:30.983Z,19.40
2019-06-26T19:13:03.664Z,19.40
2019-06-26T19:15:36.657Z,19.40
2019-06-26T19:18:09.321Z,19.20
2019-06-26T19:20:42.658Z,19.10
2019-06-26T19:23:16.440Z,18.90
2019-06-26T19:25:48.959Z,19.10
2019-06-26T19:28:23.211Z,19.10
2019-06-26T19:30:56.257Z,19.10
2019-06-26T19:33:29.053Z,19.10
2019-06-26T19:36:02.833Z,19.10
2019-06-26T19:38:35.562Z,19.00
2019-06-26T19:41:08.802Z,18.90
2019-06-26T19:43:43.129Z,18.80
2019-06-26T19:46:16.489Z,18.80
2019-06-26T19:48:49.901Z,18.70
2019-06-26T19:51:22.963Z,18.70
2019-06-26T19:54:06.878Z,18.60
2019-06-26T19:56:41.074Z,18.60
2019-06-26T19:59:14.145Z,18.60
2019-06-26T20:01:51.146Z,18.50
2019-06-26T20:04:21.999Z,18.40
2019-06-26T20:06:54.636Z,18.50
2019-06-26T20:09:27.235Z,18.50
2019-06-26T20:11:59.614Z,18.40
2019-06-26T20:14:33.655Z,18.30
2019-06-26T20:17:06.326Z,18.40
2019-06-26T20:19:39.415Z,18.30
2019-06-26T20:22:12.660Z,18.20
2019-06-26T20:24:46.083Z,18.20
2019-06-26T20:27:18.641Z,18.30
2019-06-26T20:29:51.904Z,18.20
2019-06-26T20:32:24.637Z,18.10
2019-06-26T20:34:56.998Z,18.00
2019-06-26T20:37:29.322Z,18.00
2019-06-26T20:40:03.146Z,18.10
2019-06-26T20:42:35.961Z,18.00
2019-06-26T20:45:10.136Z,18.10
2019-06-26T20:47:43.705Z,18.10
2019-06-26T20:50:17.535Z,18.00
2019-06-26T20:52:50.191Z,17.90
2019-06-26T20:55:22.841Z,18.00
2019-06-26T20:57:55.620Z,18.00
2019-06-26T21:00:28.691Z,18.00
2019-06-26T21:03:01.440Z,18.00
2019-06-26T21:05:34.012Z,18.00
2019-06-26T21:08:06.915Z,17.90
2019-06-26T21:10:39.255Z,17.80
2019-06-26T21:13:13.060Z,17.70
2019-06-26T21:15:45.334Z,17.80
2019-06-26T21:18:18.253Z,17.80
2019-06-26T21:20:50.650Z,17.60
2019-06-26T21:23:23.669Z,17.60
2019-06-26T21:25:56.340Z,17.50
2019-06-26T21:28:29.084Z,17.50
2019-06-26T21:31:01.466Z,17.40
2019-06-26T21:33:34.176Z,17.40
2019-06-26T21:36:07.066Z,17.30
2019-06-26T21:38:40.258Z,17.30
2019-06-26T21:41:12.807Z,17.50
2019-06-26T21:43:45.175Z,17.60
2019-06-26T21:46:18.585Z,17.60
2019-06-26T21:48:51.475Z,17.60
2019-06-26T21:51:24.167Z,17.60
2019-06-26T21:53:56.845Z,17.70
2019-06-26T21:56:47.590Z,17.60
2019-06-26T21:59:38.039Z,17.50
2019-06-26T22:02:27.985Z,17.40
2019-06-26T22:05:03.966Z,17.50
2019-06-26T22:07:54.565Z,17.60
2019-06-26T22:10:28.490Z,17.60
2019-06-26T22:13:03.013Z,17.70
2019-06-26T22:15:35.631Z,17.60
2019-06-26T22:18:07.984Z,17.70
2019-06-26T22:20:40.334Z,17.70
2019-06-26T22:23:12.933Z,17.60
2019-06-26T22:25:50.983Z,17.50
2019-06-26T22:28:19.434Z,17.50
2019-06-26T22:30:51.846Z,17.50
2019-06-26T22:33:25.813Z,17.50
2019-06-26T22:35:59.791Z,17.40
2019-06-26T22:38:33.058Z,17.30
2019-06-26T22:41:05.391Z,17.30
2019-06-26T22:43:37.799Z,17.30
2019-06-26T22:46:10.935Z,17.30
2019-06-26T22:48:43.250Z,17.30
2019-06-26T22:51:15.915Z,17.30
2019-06-26T22:53:48.694Z,17.30
2019-06-26T22:56:21.122Z,17.20
2019-06-26T22:58:53.715Z,17.30
2019-06-26T23:01:26.402Z,17.20
2019-06-26T23:03:58.789Z,17.30
2019-06-26T23:06:31.168Z,17.20
2019-06-26T23:09:05.300Z,17.10
2019-06-26T23:11:37.746Z,17.10
2019-06-26T23:14:10.936Z,17.10
2019-06-26T23:16:43.627Z,17.20
2019-06-26T23:19:16.182Z,17.00
2019-06-26T23:21:48.472Z,17.00
2019-06-26T23:24:20.832Z,17.00
2019-06-26T23:26:53.250Z,17.00
2019-06-26T23:29:25.624Z,17.20
2019-06-26T23:31:57.916Z,17.10
2019-06-26T23:34:30.959Z,17.10
2019-06-26T23:37:03.340Z,17.00
2019-06-26T23:39:35.685Z,17.00
2019-06-26T23:42:08.263Z,16.90
2019-06-26T23:44:40.743Z,16.80
2019-06-26T23:47:15.604Z,16.70
2019-06-26T23:49:48.313Z,16.70
2019-06-26T23:52:20.881Z,16.70
2019-06-26T23:54:53.219Z,16.80
2019-06-26T23:57:25.519Z,16.90
2019-06-26T23:59:58.149Z,17.00
